Time;durP1;ratioP1;P1;durP2;ratioP2;P2;SDS_P1;SDS_P2;PMS_P1;PMS_P2;Temp;Humidity;BMP_temperature;BMP_pressure;BME280_temperature;BME280_humidity;BME280_pressure;Samples;Min_cycle;Max_cycle;Signal;HPM_P1;HPM_P2
2022/10/30 00:03:36;;;;;;;44.63;27.80;;;14.60;99.90;;;;;;9998077;29;20701;-88
2022/10/30 00:08:39;;;;;;;38.50;25.17;;;14.20;99.90;;;;;;9988725;29;20219;-89
2022/10/30 00:13:43;;;;;;;41.10;26.77;;;14.20;99.90;;;;;;9970673;29;20306;-89
2022/10/30 00:18:46;;;;;;;41.27;27.10;;;13.60;99.90;;;;;;9992630;29;20219;-89
2022/10/30 00:23:50;;;;;;;44.83;27.57;;;13.40;99.90;;;;;;9980343;29;20242;-89
2022/10/30 00:28:54;;;;;;;36.10;25.33;;;13.50;99.90;;;;;;9995972;29;20254;-89
2022/10/30 00:33:57;;;;;;;37.90;25.33;;;14.20;99.90;;;;;;9973049;29;20682;-89
2022/10/30 00:39:00;;;;;;;38.77;25.37;;;14.40;99.90;;;;;;9974435;29;20242;-89
2022/10/30 00:44:22;;;;;;;35.70;25.80;;;14.10;99.90;;;;;;9979324;29;20668;-89
2022/10/30 00:49:25;;;;;;;37.10;25.07;;;13.70;99.90;;;;;;9963449;29;20249;-89
2022/10/30 00:54:27;;;;;;;38.67;26.50;;;14.10;99.90;;;;;;9978438;29;20300;-89
2022/10/30 00:59:33;;;;;;;35.17;24.27;;;14.00;99.90;;;;;;9978521;29;20643;-89
2022/10/30 01:04:37;;;;;;;37.47;23.97;;;13.30;99.90;;;;;;9968250;29;20311;-89
2022/10/30 01:09:41;;;;;;;31.60;21.20;;;13.10;99.90;;;;;;9975783;29;20631;-89
2022/10/30 01:14:58;;;;;;;38.67;22.33;;;14.60;99.90;;;;;;9975116;29;20331;-89
2022/10/30 01:20:27;;;;;;;28.27;21.07;;;14.80;99.90;;;;;;9983199;29;20231;-89
2022/10/30 01:25:46;;;;;;;33.77;23.03;;;15.10;99.90;;;;;;9986114;29;20286;-89
2022/10/30 01:31:19;;;;;;;28.03;20.60;;;15.70;99.90;;;;;;9972658;29;20254;-89
2022/10/30 01:36:34;;;;;;;31.97;20.77;;;15.30;99.90;;;;;;9985727;29;20243;-89
2022/10/30 01:41:37;;;;;;;30.90;20.97;;;15.60;99.90;;;;;;10001942;29;20572;-89
2022/10/30 01:46:50;;;;;;;31.13;20.63;;;15.50;99.90;;;;;;9974105;29;20250;-89
2022/10/30 01:52:05;;;;;;;31.27;20.53;;;14.90;99.90;;;;;;9974930;29;20310;-89
2022/10/30 01:57:46;;;;;;;36.13;21.83;;;15.30;99.90;;;;;;9990270;29;20629;-89
2022/10/30 02:02:50;;;;;;;36.43;22.37;;;14.80;99.90;;;;;;9974890;29;20279;-89
2022/10/30 02:07:56;;;;;;;35.00;20.83;;;14.50;99.90;;;;;;9973843;29;20754;-89
2022/10/30 02:13:01;;;;;;;32.50;21.87;;;14.40;99.90;;;;;;9964636;29;20681;-89
2022/10/30 02:18:04;;;;;;;37.23;21.47;;;13.80;99.90;;;;;;9981975;29;20294;-89
2022/10/30 02:23:07;;;;;;;30.80;21.90;;;13.90;99.90;;;;;;9994386;29;20707;-89
2022/10/30 02:28:11;;;;;;;34.43;22.30;;;14.30;99.90;;;;;;9972722;29;20258;-90
2022/10/30 02:33:14;;;;;;;32.97;20.77;;;14.20;99.90;;;;;;9977935;29;20254;-89
2022/10/30 02:38:17;;;;;;;38.53;21.33;;;14.00;99.90;;;;;;9986786;29;20238;-89
2022/10/30 02:43:20;;;;;;;34.13;22.17;;;14.50;99.90;;;;;;9981864;29;20274;-89
2022/10/30 02:48:22;;;;;;;34.93;21.80;;;14.00;99.90;;;;;;9981896;29;20299;-90
2022/10/30 02:53:25;;;;;;;39.77;23.57;;;13.90;99.90;;;;;;9971478;29;20291;-90
2022/10/30 02:58:28;;;;;;;31.70;20.43;;;13.80;99.90;;;;;;9975861;29;20472;-90
2022/10/30 03:03:30;;;;;;;34.17;21.90;;;14.20;99.90;;;;;;9983337;29;20296;-89
2022/10/30 03:08:33;;;;;;;32.77;22.57;;;13.90;99.90;;;;;;9982989;29;20214;-90
2022/10/30 03:13:40;;;;;;;33.37;21.77;;;13.30;99.90;;;;;;9968964;29;20359;-89
2022/10/30 03:18:45;;;;;;;33.90;20.93;;;13.10;99.90;;;;;;9972495;29;20237;-89
2022/10/30 03:23:49;;;;;;;32.87;22.57;;;13.90;99.90;;;;;;10001071;29;20277;-89
2022/10/30 03:28:52;;;;;;;39.97;23.80;;;13.50;99.90;;;;;;9977667;29;20309;-89
2022/10/30 03:33:55;;;;;;;24.97;19.17;;;12.50;99.90;;;;;;9965950;29;20250;-89
2022/10/30 03:38:57;;;;;;;27.67;19.57;;;15.00;99.90;;;;;;9965579;29;20299;-89
2022/10/30 03:44:01;;;;;;;38.63;22.17;;;15.70;99.90;;;;;;9987336;29;20323;-89
2022/10/30 03:49:03;;;;;;;34.50;23.87;;;15.70;99.90;;;;;;9983112;29;20253;-88
2022/10/30 03:54:07;;;;;;;23.77;17.33;;;15.30;99.90;;;;;;9983677;29;20322;-88
2022/10/30 03:59:09;;;;;;;37.03;21.63;;;15.40;99.90;;;;;;9982221;29;20241;-89
2022/10/30 04:04:15;;;;;;;33.47;21.37;;;14.80;99.90;;;;;;9985255;29;20237;-89
2022/10/30 04:09:18;;;;;;;34.70;21.70;;;14.50;99.90;;;;;;9994591;29;20825;-89
2022/10/30 04:14:20;;;;;;;41.97;24.07;;;14.30;99.90;;;;;;9986401;29;20305;-89
2022/10/30 04:19:23;;;;;;;23.73;17.17;;;13.70;99.90;;;;;;9981273;29;20689;-89
2022/10/30 04:24:25;;;;;;;25.63;19.97;;;13.80;99.90;;;;;;9973420;29;20713;-89
2022/10/30 04:29:31;;;;;;;37.10;21.73;;;15.20;99.90;;;;;;9969224;29;20311;-89
2022/10/30 04:34:33;;;;;;;34.03;21.10;;;15.20;99.90;;;;;;9981092;29;20313;-89
2022/10/30 04:39:38;;;;;;;35.13;22.17;;;14.50;99.90;;;;;;9986082;29;20247;-90
2022/10/30 04:44:52;;;;;;;34.70;23.67;;;13.80;99.90;;;;;;9971261;29;20374;-89
2022/10/30 04:49:55;;;;;;;30.87;21.73;;;13.40;99.90;;;;;;9963012;29;20777;-89
2022/10/30 04:54:58;;;;;;;35.07;21.47;;;13.30;99.90;;;;;;9963553;29;20321;-89
2022/10/30 05:00:01;;;;;;;36.07;24.27;;;13.50;99.90;;;;;;9977672;29;20275;-89
2022/10/30 05:05:04;;;;;;;28.87;20.83;;;13.10;99.90;;;;;;9978861;29;20348;-88
2022/10/30 05:10:13;;;;;;;31.10;21.03;;;13.60;99.90;;;;;;9973228;29;20277;-89
2022/10/30 05:15:16;;;;;;;33.23;21.87;;;13.70;99.90;;;;;;9987632;29;20258;-89
2022/10/30 05:20:20;;;;;;;31.10;20.40;;;13.60;99.90;;;;;;9981682;29;20657;-89
2022/10/30 05:25:23;;;;;;;29.67;20.60;;;13.80;99.90;;;;;;9982775;29;20299;-89
2022/10/30 05:30:30;;;;;;;27.47;19.27;;;13.90;99.90;;;;;;9965226;29;20250;-89
2022/10/30 05:35:35;;;;;;;33.70;19.63;;;13.40;99.90;;;;;;9977744;29;20301;-89
2022/10/30 05:40:39;;;;;;;38.87;21.23;;;13.50;99.90;;;;;;9982111;29;20246;-89
2022/10/30 05:45:42;;;;;;;35.87;21.33;;;13.40;99.90;;;;;;9993832;29;20727;-89
2022/10/30 05:50:45;;;;;;;23.40;18.13;;;13.30;99.90;;;;;;9964728;29;20256;-89
2022/10/30 05:56:08;;;;;;;31.67;21.17;;;13.50;99.90;;;;;;9993680;29;20278;-88
2022/10/30 06:01:12;;;;;;;34.87;22.20;;;;;;;;;;9989054;29;20252;-88
2022/10/30 06:06:18;;;;;;;44.80;25.83;;;12.90;99.90;;;;;;9974586;29;20300;-89
2022/10/30 06:11:24;;;;;;;44.13;25.87;;;13.40;99.90;;;;;;9974289;29;20302;-89
2022/10/30 06:16:29;;;;;;;37.50;23.13;;;13.30;99.90;;;;;;9972046;29;20274;-88
2022/10/30 06:21:56;;;;;;;49.47;26.73;;;13.60;99.90;;;;;;9974840;29;20260;-88
2022/10/30 06:27:09;;;;;;;47.73;25.53;;;13.70;99.90;;;;;;9957420;29;20245;-88
2022/10/30 06:32:11;;;;;;;52.47;29.40;;;13.40;99.90;;;;;;9979384;29;20267;-88
2022/10/30 06:37:16;;;;;;;35.80;24.97;;;13.90;99.90;;;;;;9972464;29;20657;-88
2022/10/30 06:42:19;;;;;;;49.33;29.47;;;14.00;99.90;;;;;;9977503;29;20672;-88
2022/10/30 06:47:35;;;;;;;44.60;25.77;;;14.60;99.90;;;;;;9967947;29;20250;-89
2022/10/30 06:52:38;;;;;;;27.63;19.10;;;15.30;99.90;;;;;;9978654;29;20319;-88
2022/10/30 06:57:41;;;;;;;40.00;25.60;;;15.90;99.90;;;;;;9968946;29;20242;-88
2022/10/30 07:02:59;;;;;;;38.03;23.70;;;15.60;99.90;;;;;;9964126;29;20685;-89
2022/10/30 07:08:04;;;;;;;23.07;17.37;;;15.30;99.90;;;;;;9974339;29;20254;-88
2022/10/30 07:13:07;;;;;;;25.30;17.90;;;15.10;99.90;;;;;;9972196;29;20327;-89
2022/10/30 07:18:24;;;;;;;32.60;21.50;;;15.90;99.90;;;;;;9974207;29;20241;-88
2022/10/30 07:23:31;;;;;;;25.90;19.60;;;16.00;99.90;;;;;;9969381;29;20714;-89
2022/10/30 07:28:51;;;;;;;36.07;26.60;;;16.00;99.90;;;;;;9973786;29;20266;-89
2022/10/30 07:34:12;;;;;;;21.37;17.23;;;15.50;99.90;;;;;;9981507;29;20272;-89
2022/10/30 07:39:22;;;;;;;32.80;24.90;;;16.40;99.90;;;;;;9981554;29;20249;-89
2022/10/30 07:44:39;;;;;;;38.73;27.17;;;16.80;99.90;;;;;;9967709;29;20815;-88
2022/10/30 07:49:48;;;;;;;36.53;25.63;;;16.60;99.90;;;;;;9972174;29;20250;-89
2022/10/30 07:54:52;;;;;;;39.67;28.93;;;16.60;99.90;;;;;;9984380;29;20270;-88
2022/10/30 08:00:24;;;;;;;32.77;25.47;;;16.40;99.90;;;;;;9976405;29;20692;-89
2022/10/30 08:05:36;;;;;;;28.97;21.63;;;16.00;99.90;;;;;;9957734;29;20242;-88
2022/10/30 08:10:45;;;;;;;24.30;17.73;;;16.70;99.90;;;;;;9985968;29;20254;-88
2022/10/30 08:15:48;;;;;;;20.13;16.53;;;17.30;99.90;;;;;;9983748;29;20266;-89
2022/10/30 08:20:52;;;;;;;45.83;30.20;;;17.60;99.90;;;;;;9949869;29;20222;-89
2022/10/30 08:25:59;;;;;;;23.93;18.33;;;17.00;99.90;;;;;;9978400;29;20250;-89
2022/10/30 08:31:04;;;;;;;28.13;20.07;;;16.90;99.90;;;;;;9968683;29;20250;-89
2022/10/30 08:36:25;;;;;;;33.63;21.80;;;17.00;99.90;;;;;;9982175;29;20262;-89
2022/10/30 08:41:28;;;;;;;39.43;28.23;;;17.40;99.90;;;;;;9995395;29;20663;-89
2022/10/30 08:46:31;;;;;;;33.37;24.60;;;17.50;99.90;;;;;;9970264;29;20323;-88
2022/10/30 08:51:34;;;;;;;23.13;18.67;;;17.20;99.90;;;;;;9963734;29;20299;-88
2022/10/30 08:56:36;;;;;;;38.67;26.13;;;17.10;99.90;;;;;;9992296;29;20258;-88
2022/10/30 09:01:46;;;;;;;25.67;18.77;;;17.10;99.90;;;;;;9980331;29;20254;-88
2022/10/30 09:06:54;;;;;;;19.67;15.60;;;17.50;99.90;;;;;;9988531;29;20251;-88
2022/10/30 09:12:15;;;;;;;21.73;15.77;;;18.00;99.90;;;;;;9988859;29;20265;-89
2022/10/30 09:17:20;;;;;;;44.93;27.40;;;18.40;99.90;;;;;;9975850;29;20749;-89
2022/10/30 09:22:23;;;;;;;24.73;18.10;;;18.30;99.90;;;;;;9972338;29;20250;-87
2022/10/30 09:27:26;;;;;;;50.23;33.57;;;18.30;99.90;;;;;;9969992;29;20936;-88
2022/10/30 09:32:31;;;;;;;27.37;19.57;;;18.10;99.90;;;;;;9982488;29;20251;-87
2022/10/30 09:37:41;;;;;;;38.50;27.00;;;18.10;99.90;;;;;;9963093;29;20692;-88
2022/10/30 09:42:52;;;;;;;43.23;29.83;;;18.10;99.90;;;;;;9967827;29;20274;-88
2022/10/30 09:48:05;;;;;;;48.93;33.90;;;18.40;99.90;;;;;;9970760;29;20315;-88
2022/10/30 09:53:32;;;;;;;61.20;36.00;;;16.40;99.90;;;;;;9972137;29;20319;-88
2022/10/30 09:58:57;;;;;;;48.53;30.07;;;15.50;99.90;;;;;;9982952;29;20295;-87
2022/10/30 10:04:21;;;;;;;47.63;33.60;;;16.00;99.90;;;;;;9982044;29;20704;-88
2022/10/30 10:09:44;;;;;;;47.43;32.37;;;15.80;99.90;;;;;;9977117;29;20245;-89
2022/10/30 10:14:56;;;;;;;47.77;31.07;;;15.90;99.90;;;;;;9973069;29;20266;-88
2022/10/30 10:20:00;;;;;;;44.97;31.70;;;16.10;99.90;;;;;;9965924;29;20261;-88
2022/10/30 10:25:10;;;;;;;38.77;28.73;;;16.10;99.90;;;;;;9997378;29;20250;-88
2022/10/30 10:30:21;;;;;;;46.30;28.50;;;17.20;99.90;;;;;;9973253;29;20298;-88
2022/10/30 10:35:32;;;;;;;43.93;26.27;;;18.10;99.90;;;;;;9964420;29;20258;-88
2022/10/30 10:40:54;;;;;;;42.27;24.00;;;;;;;;;;9978868;29;20328;-88
2022/10/30 10:46:42;;;;;;;43.73;25.67;;;18.90;99.90;;;;;;9990720;29;20258;-88
2022/10/30 10:52:02;;;;;;;35.03;25.10;;;18.90;99.90;;;;;;9965718;29;20308;-91
2022/10/30 10:57:06;;;;;;;37.37;25.67;;;19.10;99.90;;;;;;9964189;29;20262;-91
2022/10/30 11:02:30;;;;;;;35.70;24.43;;;19.10;99.90;;;;;;9990203;29;20309;-91
2022/10/30 11:07:46;;;;;;;35.70;24.53;;;19.20;99.90;;;;;;9981059;29;20250;-91
2022/10/30 11:12:48;;;;;;;39.50;24.07;;;19.10;99.90;;;;;;10008668;29;20234;-91
2022/10/30 11:18:01;;;;;;;31.40;22.77;;;19.20;99.90;;;;;;9991516;29;20274;-90
2022/10/30 11:23:34;;;;;;;36.07;24.53;;;19.20;99.90;;;;;;9980959;29;20769;-91
2022/10/30 11:28:44;;;;;;;36.40;24.37;;;19.30;99.90;;;;;;9985713;29;20238;-91
2022/10/30 11:33:48;;;;;;;45.10;24.20;;;19.30;99.90;;;;;;10000384;29;20258;-92
2022/10/30 11:38:51;;;;;;;33.70;24.53;;;19.40;99.90;;;;;;9973462;29;20234;-92
2022/10/30 11:43:53;;;;;;;34.43;23.10;;;19.40;99.90;;;;;;9974846;29;20727;-91
2022/10/30 11:48:56;;;;;;;38.53;26.53;;;19.40;99.90;;;;;;9980487;29;20245;-91
2022/10/30 11:54:00;;;;;;;40.77;25.33;;;19.40;99.90;;;;;;9976550;29;20257;-91
2022/10/30 11:59:04;;;;;;;57.00;31.87;;;19.50;99.90;;;;;;10005447;29;20294;-90
2022/10/30 12:04:21;;;;;;;61.93;37.23;;;19.50;99.90;;;;;;9991027;29;20242;-91
2022/10/30 12:09:23;;;;;;;55.00;30.90;;;19.50;99.90;;;;;;9986048;29;20221;-91
2022/10/30 12:14:26;;;;;;;45.03;29.37;;;19.50;99.90;;;;;;9986238;29;20793;-91
2022/10/30 12:19:31;;;;;;;33.80;24.43;;;19.40;99.90;;;;;;10000313;29;20326;-92
2022/10/30 12:24:37;;;;;;;48.20;29.90;;;19.50;99.90;;;;;;9985969;29;20701;-91
2022/10/30 12:30:03;;;;;;;45.17;29.20;;;19.40;99.90;;;;;;9977479;29;20834;-91
2022/10/30 12:35:36;;;;;;;50.67;30.60;;;19.30;99.90;;;;;;9968433;29;20263;-91
2022/10/30 12:40:46;;;;;;;49.50;28.60;;;19.00;99.90;;;;;;9981672;29;20303;-92
2022/10/30 12:45:51;;;;;;;47.23;30.63;;;18.90;99.90;;;;;;10001286;29;20723;-91
2022/10/30 12:51:19;;;;;;;41.77;29.37;;;18.70;99.90;;;;;;10005086;29;20305;-91
2022/10/30 12:56:34;;;;;;;45.73;30.20;;;18.40;99.90;;;;;;9983014;29;20265;-91
2022/10/30 13:02:17;;;;;;;46.20;26.50;;;18.30;99.90;;;;;;9985205;29;20250;-93
2022/10/30 13:07:36;;;;;;;32.57;23.60;;;18.20;99.90;;;;;;9944082;29;20270;-93
2022/10/30 13:12:43;;;;;;;39.67;23.97;;;18.10;99.90;;;;;;9974242;29;20916;-93
2022/10/30 13:17:45;;;;;;;40.53;26.17;;;17.90;99.90;;;;;;9977505;29;20311;-92
2022/10/30 13:23:15;;;;;;;37.00;23.37;;;17.90;99.90;;;;;;9979461;29;20239;-92
2022/10/30 13:28:21;;;;;;;41.63;26.13;;;17.80;99.90;;;;;;9970858;29;20234;-93
2022/10/30 13:33:40;;;;;;;35.07;22.43;;;17.70;99.90;;;;;;9985887;29;20235;-92
2022/10/30 13:39:04;;;;;;;38.20;24.30;;;17.60;99.90;;;;;;9987447;29;20249;-92
2022/10/30 13:44:29;;;;;;;31.13;21.33;;;17.60;99.90;;;;;;9948360;29;20278;-93
2022/10/30 13:49:37;;;;;;;33.40;19.67;;;17.70;99.90;;;;;;9960375;29;20250;-93
2022/10/30 13:55:15;;;;;;;38.63;24.27;;;17.90;99.90;;;;;;9944353;29;20266;-93
2022/10/30 14:00:22;;;;;;;28.93;20.30;;;17.70;99.90;;;;;;9946309;29;20319;-94
2022/10/30 14:05:47;;;;;;;21.20;16.33;;;17.60;99.90;;;;;;9954822;29;20248;-92
2022/10/30 14:10:56;;;;;;;26.00;18.27;;;18.00;99.90;;;;;;9941117;29;20286;-92
2022/10/30 14:16:06;;;;;;;45.13;27.33;;;18.00;99.90;;;;;;9940414;29;20327;-94
2022/10/30 14:21:30;;;;;;;25.03;17.53;;;17.80;99.90;;;;;;9940579;29;20247;-94
2022/10/30 14:26:33;;;;;;;26.83;18.50;;;17.90;99.90;;;;;;9965892;29;20251;-94
2022/10/30 14:31:36;;;;;;;21.73;16.80;;;18.00;99.90;;;;;;9962203;29;20327;-94
2022/10/30 14:36:38;;;;;;;41.10;25.77;;;18.10;99.90;;;;;;9956499;29;20308;-93
2022/10/30 14:42:05;;;;;;;22.60;16.70;;;17.80;99.90;;;;;;9964354;29;20337;-92
2022/10/30 14:47:43;;;;;;;39.53;26.73;;;17.90;99.90;;;;;;9981466;29;20298;-93
2022/10/30 14:52:54;;;;;;;27.60;20.00;;;17.80;99.90;;;;;;9965147;29;20695;-93
2022/10/30 14:58:00;;;;;;;26.03;18.43;;;17.50;99.90;;;;;;9981881;29;20283;-93
2022/10/30 15:03:17;;;;;;;42.77;29.73;;;17.20;99.90;;;;;;9984480;29;20323;-93
2022/10/30 15:08:47;;;;;;;43.67;24.93;;;16.80;99.90;;;;;;9972320;29;20242;-94
2022/10/30 15:13:54;;;;;;;51.57;30.37;;;16.50;99.90;;;;;;9977230;29;20290;-92
2022/10/30 15:19:11;;;;;;;55.47;34.23;;;16.10;99.90;;;;;;9969918;29;20656;-93
2022/10/30 15:24:17;;;;;;;58.53;38.97;;;15.60;99.90;;;;;;9995561;29;20313;-93
2022/10/30 15:29:30;;;;;;;93.60;57.57;;;15.10;99.90;;;;;;9977966;29;20278;-93
2022/10/30 15:34:33;;;;;;;61.83;34.93;;;14.80;99.90;;;;;;9984821;29;20259;-93
2022/10/30 15:39:35;;;;;;;49.90;28.27;;;14.70;99.90;;;;;;9969255;29;20211;-93
2022/10/30 15:44:44;;;;;;;44.80;29.83;;;14.50;99.90;;;;;;9999692;29;20294;-93
2022/10/30 15:49:55;;;;;;;44.33;28.47;;;14.60;99.90;;;;;;10006833;29;20246;-93
2022/10/30 15:55:07;;;;;;;47.03;28.13;;;14.40;99.90;;;;;;9987896;29;20301;-92
2022/10/30 16:00:29;;;;;;;47.77;29.57;;;14.80;99.90;;;;;;10014493;29;20336;-93
2022/10/30 16:05:32;;;;;;;46.80;30.57;;;14.40;99.90;;;;;;9991450;29;20247;-93
2022/10/30 16:10:35;;;;;;;122.30;63.67;;;15.10;99.90;;;;;;9986417;29;20311;-93
2022/10/30 16:15:38;;;;;;;163.40;83.33;;;14.10;99.90;;;;;;9974763;29;20320;-92
2022/10/30 16:20:45;;;;;;;164.73;85.43;;;14.00;99.90;;;;;;9983171;29;20294;-93
2022/10/30 16:25:54;;;;;;;144.73;76.40;;;13.90;99.90;;;;;;9979432;29;20242;-92
2022/10/30 16:30:59;;;;;;;205.97;108.13;;;14.40;99.90;;;;;;9984795;29;20652;-94
2022/10/30 16:36:04;;;;;;;115.63;62.80;;;13.80;99.90;;;;;;9992060;29;20260;-93
2022/10/30 16:41:12;;;;;;;92.53;49.93;;;14.00;99.90;;;;;;9985880;29;20634;-92
2022/10/30 16:46:14;;;;;;;92.97;49.27;;;14.70;99.90;;;;;;9975393;29;20707;-93
2022/10/30 16:51:17;;;;;;;26.40;19.77;;;14.50;99.90;;;;;;9998328;29;20342;-95
2022/10/30 16:56:23;;;;;;;119.90;69.37;;;14.50;99.90;;;;;;9997794;29;20317;-92
2022/10/30 17:01:26;;;;;;;93.27;52.03;;;14.20;99.90;;;;;;9969197;29;20250;-93
2022/10/30 17:06:40;;;;;;;102.07;52.67;;;14.30;99.90;;;;;;9982543;29;20323;-92
2022/10/30 17:11:47;;;;;;;83.50;48.87;;;15.10;99.90;;;;;;9978106;29;20245;-91
2022/10/30 17:16:58;;;;;;;83.50;43.83;;;15.40;99.90;;;;;;9975577;29;20716;-92
2022/10/30 17:22:06;;;;;;;88.07;45.33;;;15.50;99.90;;;;;;9986227;29;20245;-92
2022/10/30 17:27:29;;;;;;;78.83;46.07;;;16.00;99.90;;;;;;9972317;29;20265;-92
2022/10/30 17:32:43;;;;;;;91.53;45.13;;;16.40;99.90;;;;;;9980894;29;20258;-91
2022/10/30 17:37:46;;;;;;;83.43;44.47;;;16.00;99.90;;;;;;9972070;29;20262;-92
2022/10/30 17:42:48;;;;;;;80.77;43.80;;;15.60;99.90;;;;;;9987178;29;20319;-91
2022/10/30 17:47:51;;;;;;;72.30;42.03;;;15.70;99.90;;;;;;9975750;29;20246;-91
2022/10/30 17:52:53;;;;;;;103.20;45.23;;;16.20;99.90;;;;;;9974017;29;20300;-92
2022/10/30 17:57:56;;;;;;;83.80;41.60;;;16.00;99.90;;;;;;9993399;29;20258;-91
2022/10/30 18:02:58;;;;;;;58.77;38.13;;;15.90;99.90;;;;;;9985958;29;20303;-92
2022/10/30 18:08:02;;;;;;;76.60;38.13;;;15.80;99.90;;;;;;10014254;29;20322;-92
2022/10/30 18:13:10;;;;;;;65.70;36.60;;;15.70;99.90;;;;;;9318472;29;10000703;-92
2022/10/30 18:18:13;;;;;;;66.47;36.47;;;15.70;99.90;;;;;;9969945;29;20347;-92
2022/10/30 18:23:23;;;;;;;52.00;32.90;;;15.80;99.90;;;;;;9994944;29;20242;-92
2022/10/30 18:28:46;;;;;;;62.97;33.63;;;15.70;99.90;;;;;;9965994;29;20295;-91
2022/10/30 18:33:49;;;;;;;81.83;37.77;;;15.60;99.90;;;;;;9966207;29;20245;-92
2022/10/30 18:38:53;;;;;;;64.30;35.40;;;15.30;99.90;;;;;;9967186;29;20262;-92
2022/10/30 18:43:56;;;;;;;58.23;32.33;;;15.30;99.90;;;;;;9982729;29;20265;-92
2022/10/30 18:48:59;;;;;;;52.00;30.63;;;15.40;99.90;;;;;;9995303;29;20267;-92
2022/10/30 18:54:02;;;;;;;55.97;33.73;;;15.20;99.90;;;;;;10005406;29;20913;-91
2022/10/30 18:59:04;;;;;;;48.73;28.87;;;15.50;99.90;;;;;;9978294;29;20258;-92
2022/10/30 19:04:10;;;;;;;48.07;31.17;;;16.10;99.90;;;;;;9983702;29;20358;-92
2022/10/30 19:09:12;;;;;;;52.33;29.80;;;16.30;99.90;;;;;;9995317;29;20211;-92
2022/10/30 19:14:15;;;;;;;50.33;26.67;;;15.70;99.90;;;;;;9982942;29;20307;-92
2022/10/30 19:19:18;;;;;;;49.63;31.57;;;15.70;99.90;;;;;;9968657;29;20262;-92
2022/10/30 19:24:20;;;;;;;50.53;28.80;;;15.20;99.90;;;;;;9978370;29;20291;-92
2022/10/30 19:29:23;;;;;;;49.07;30.90;;;14.60;99.90;;;;;;9978548;29;20307;-92
2022/10/30 19:34:25;;;;;;;64.60;32.60;;;14.60;99.90;;;;;;9968455;29;20276;-92
2022/10/30 19:39:31;;;;;;;60.17;34.53;;;15.20;99.90;;;;;;9977339;29;20258;-93
2022/10/30 19:44:34;;;;;;;58.33;35.23;;;14.80;99.90;;;;;;9996863;29;20736;-92
2022/10/30 19:49:36;;;;;;;62.30;37.80;;;14.80;99.90;;;;;;9977398;29;20760;-92
2022/10/30 19:54:39;;;;;;;63.67;37.80;;;14.90;99.90;;;;;;9981549;29;20237;-90
2022/10/30 19:59:42;;;;;;;61.93;36.77;;;14.70;99.90;;;;;;10011275;29;20268;-92
2022/10/30 20:04:45;;;;;;;57.40;37.63;;;14.40;99.90;;;;;;10017512;29;20684;-92
2022/10/30 20:09:47;;;;;;;46.50;32.23;;;14.60;99.90;;;;;;9997082;29;20218;-92
2022/10/30 20:14:50;;;;;;;57.70;33.67;;;14.30;99.90;;;;;;9985678;29;20287;-91
2022/10/30 20:19:52;;;;;;;47.17;31.23;;;14.40;99.90;;;;;;9996908;29;20667;-91
2022/10/30 20:24:55;;;;;;;50.77;33.57;;;14.40;99.90;;;;;;9996025;29;20336;-91
2022/10/30 20:29:57;;;;;;;46.30;30.67;;;14.40;99.90;;;;;;9975110;29;20249;-91
2022/10/30 20:35:00;;;;;;;50.30;30.73;;;14.30;99.90;;;;;;9990296;29;20239;-91
2022/10/30 20:40:03;;;;;;;51.27;30.30;;;14.40;99.90;;;;;;9998540;29;20797;-91
2022/10/30 20:45:09;;;;;;;44.80;30.90;;;14.40;99.90;;;;;;9982123;29;20720;-90
2022/10/30 20:50:13;;;;;;;57.30;31.97;;;14.50;99.90;;;;;;9996367;29;20239;-90
2022/10/30 20:55:16;;;;;;;58.90;32.67;;;14.10;99.90;;;;;;9988301;29;20635;-90
2022/10/30 21:00:19;;;;;;;77.17;39.20;;;14.20;99.90;;;;;;9990948;29;20655;-91
2022/10/30 21:05:21;;;;;;;84.17;39.10;;;14.30;99.90;;;;;;10015423;29;20279;-91
2022/10/30 21:10:44;;;;;;;84.73;40.87;;;14.10;99.90;;;;;;9973080;29;20246;-91
2022/10/30 21:15:46;;;;;;;80.70;40.17;;;14.50;99.90;;;;;;9993490;29;20308;-91
2022/10/30 21:20:49;;;;;;;80.63;38.40;;;14.30;99.90;;;;;;9989246;29;20296;-91
2022/10/30 21:26:02;;;;;;;64.63;36.90;;;14.30;99.90;;;;;;9996260;29;20300;-91
2022/10/30 21:31:09;;;;;;;50.13;32.67;;;14.60;99.90;;;;;;9987525;29;20307;-91
2022/10/30 21:36:15;;;;;;;48.67;31.53;;;14.40;99.90;;;;;;9991444;29;20318;-90
2022/10/30 21:41:19;;;;;;;67.03;35.10;;;14.20;99.90;;;;;;9981213;29;20724;-91
2022/10/30 21:46:24;;;;;;;51.50;33.67;;;14.80;99.90;;;;;;9966941;29;20267;-91
2022/10/30 21:51:27;;;;;;;62.93;35.73;;;14.80;99.90;;;;;;9987438;29;20249;-91
2022/10/30 21:56:29;;;;;;;57.90;36.33;;;14.30;99.90;;;;;;9974129;29;20335;-90
2022/10/30 22:01:35;;;;;;;47.13;32.77;;;14.50;99.90;;;;;;9976168;29;20283;-91
2022/10/30 22:06:42;;;;;;;42.97;30.13;;;14.40;99.90;;;;;;9960609;29;20745;-91
2022/10/30 22:11:44;;;;;;;53.37;34.73;;;15.80;99.90;;;;;;10002905;29;20284;-90
2022/10/30 22:16:47;;;;;;;53.17;34.30;;;15.10;99.90;;;;;;9976572;29;20262;-91
2022/10/30 22:21:50;;;;;;;61.43;35.27;;;14.40;99.90;;;;;;9973325;29;20762;-90
2022/10/30 22:26:52;;;;;;;54.53;35.20;;;14.20;99.90;;;;;;10001672;29;20381;-91
2022/10/30 22:31:55;;;;;;;53.70;35.33;;;13.90;99.90;;;;;;10002112;29;20960;-90
2022/10/30 22:36:57;;;;;;;53.53;37.33;;;13.60;99.90;;;;;;9994075;29;20263;-91
2022/10/30 22:42:00;;;;;;;57.87;34.83;;;13.70;99.90;;;;;;9980951;29;20740;-92
2022/10/30 22:47:02;;;;;;;48.77;33.13;;;14.30;99.90;;;;;;9981608;29;20274;-91
2022/10/30 22:52:05;;;;;;;39.93;29.23;;;14.40;99.90;;;;;;9984419;29;20241;-91
2022/10/30 22:57:07;;;;;;;47.70;29.87;;;16.10;99.90;;;;;;9975499;29;20265;-90
2022/10/30 23:02:09;;;;;;;49.67;31.27;;;16.90;99.90;;;;;;9975825;29;20251;-91
2022/10/30 23:07:12;;;;;;;44.97;30.57;;;17.10;99.90;;;;;;9976908;29;20671;-91
2022/10/30 23:12:15;;;;;;;46.73;32.03;;;16.80;99.90;;;;;;10000192;29;20644;-91
2022/10/30 23:17:17;;;;;;;42.27;29.97;;;15.80;99.90;;;;;;9983100;29;20306;-91
2022/10/30 23:22:19;;;;;;;41.53;29.23;;;15.20;99.90;;;;;;9976491;29;20271;-91
2022/10/30 23:27:22;;;;;;;65.30;36.03;;;14.80;99.90;;;;;;9983383;29;20243;-91
2022/10/30 23:32:24;;;;;;;40.43;29.00;;;14.90;99.90;;;;;;9994663;29;20310;-90
2022/10/30 23:37:27;;;;;;;41.70;25.53;;;14.70;99.90;;;;;;9999852;29;20265;-91
2022/10/30 23:42:29;;;;;;;43.23;27.13;;;14.40;99.90;;;;;;9986021;29;20320;-90
2022/10/30 23:47:32;;;;;;;32.97;25.07;;;14.70;99.90;;;;;;9997940;29;20712;-90
2022/10/30 23:52:34;;;;;;;36.97;26.83;;;14.40;99.90;;;;;;10011500;29;20238;-91
2022/10/30 23:57:37;;;;;;;39.30;26.60;;;13.70;99.90;;;;;;9998941;29;20342;-91
